Time,TemperatureF,DewpointF,PressureIn,WindDirection,WindDirectionDegrees,WindSpeedMPH,WindSpeedGustMPH,Humidity,HourlyPrecipIn,Conditions,Clouds,dailyrainin,SolarRadiationWatts/m^2,SoftwareType,DateUTC
2013-10-12 00:00:00,59.2,54.0,30.01,NNE,15,0.0,0.0,83,0.00,,,0.00,0,Wunderground v.1.15,2013-10-12 04:00:00,
2013-10-12 01:00:00,58.0,53.5,30.00,NNE,15,0.0,0.0,85,0.00,,,0.00,0,Wunderground v.1.15,2013-10-12 05:00:00,
2013-10-12 02:00:00,56.6,53.1,30.01,NNE,15,0.0,0.0,88,0.00,,,0.00,0,Wunderground v.1.15,2013-10-12 06:00:00,
2013-10-12 03:00:00,56.0,53.4,30.01,NNE,15,0.0,0.0,91,0.00,,,0.00,0,Wunderground v.1.15,2013-10-12 07:00:00,
2013-10-12 04:00:00,55.0,52.7,30.02,NNE,15,0.0,0.0,92,0.00,,,0.00,0,Wunderground v.1.15,2013-10-12 08:00:00,
2013-10-12 05:00:00,54.1,51.8,30.02,NNE,15,0.0,0.0,92,0.00,,,0.00,0,Wunderground v.1.15,2013-10-12 09:00:00,
2013-10-12 06:00:00,53.9,51.9,30.03,NNE,15,0.0,0.0,93,0.00,,,0.00,0,Wunderground v.1.15,2013-10-12 10:00:00,
2013-10-12 07:00:00,53.1,51.4,30.04,NNE,15,0.0,0.0,94,0.00,,,0.00,0,Wunderground v.1.15,2013-10-12 11:00:00,
2013-10-12 08:00:00,52.5,50.8,30.05,NNE,15,0.0,0.0,94,0.00,,,0.00,5,Wunderground v.1.15,2013-10-12 12:00:00,
2013-10-12 09:00:00,55.1,54.0,30.06,NNE,15,0.0,0.0,96,0.00,,,0.00,19,Wunderground v.1.15,2013-10-12 13:00:00,
2013-10-12 10:00:00,63.5,57.2,30.07,NNE,15,0.0,0.0,80,0.00,,,0.00,376,Wunderground v.1.15,2013-10-12 14:00:00,
2013-10-12 11:00:00,68.8,57.8,30.06,NNE,14,0.0,1.0,68,0.00,,,0.00,541,Wunderground v.1.15,2013-10-12 15:00:00,
2013-10-12 12:00:00,72.3,55.7,30.08,North,360,0.0,3.0,56,0.00,,,0.00,663,Wunderground v.1.15,2013-10-12 16:00:00,
2013-10-12 13:00:00,75.6,53.4,30.06,NNW,342,1.0,4.0,46,0.00,,,0.00,652,Wunderground v.1.15,2013-10-12 17:00:00,
2013-10-12 14:00:00,77.9,56.0,30.06,WNW,282,2.0,4.0,47,0.00,,,0.00,759,Wunderground v.1.15,2013-10-12 18:00:00,
2013-10-12 15:00:00,79.2,51.4,30.04,North,11,3.0,8.0,38,0.00,,,0.00,529,Wunderground v.1.15,2013-10-12 19:00:00,
2013-10-12 16:00:00,78.3,53.3,30.04,NNW,336,3.0,9.0,42,0.00,,,0.00,188,Wunderground v.1.15,2013-10-12 20:00:00,
2013-10-12 17:00:00,78.8,54.4,30.04,NNE,30,2.0,12.0,43,0.00,,,0.00,77,Wunderground v.1.15,2013-10-12 21:00:00,
2013-10-12 18:00:00,77.7,53.4,30.04,North,355,3.0,12.0,43,0.00,,,0.00,86,Wunderground v.1.15,2013-10-12 22:00:00,
2013-10-12 19:00:00,75.1,55.2,30.04,North,350,2.0,12.0,50,0.00,,,0.00,5,Wunderground v.1.15,2013-10-12 23:00:00,
2013-10-12 20:00:00,69.6,56.4,30.03,North,350,0.0,12.0,63,0.00,,,0.00,0,Wunderground v.1.15,2013-10-13 00:00:00,
2013-10-12 21:00:00,66.3,57.4,30.04,North,350,0.0,12.0,73,0.00,,,0.00,0,Wunderground v.1.15,2013-10-13 01:00:00,
2013-10-12 22:00:00,63.7,57.8,30.06,North,350,0.0,12.0,81,0.00,,,0.00,0,Wunderground v.1.15,2013-10-13 02:00:00,
2013-10-12 23:00:00,61.5,57.6,30.09,North,350,0.0,12.0,87,0.00,,,0.00,0,Wunderground v.1.15,2013-10-13 03:00:00,